createdAt,value
2023-04-20T00:00:19.545Z,13.60
2023-04-20T00:02:48.002Z,13.60
2023-04-20T00:05:16.708Z,13.60
2023-04-20T00:07:45.167Z,13.60
2023-04-20T00:10:13.533Z,13.50
2023-04-20T00:12:44.309Z,13.50
2023-04-20T00:15:12.829Z,13.40
2023-04-20T00:17:41.225Z,13.40
2023-04-20T00:20:11.101Z,13.30
2023-04-20T00:22:39.743Z,13.30
2023-04-20T00:25:08.746Z,13.30
2023-04-20T00:27:37.198Z,13.30
2023-04-20T00:30:07.619Z,13.30
2023-04-20T00:32:36.019Z,13.40
2023-04-20T00:35:04.562Z,13.40
2023-04-20T00:37:32.990Z,13.40
2023-04-20T00:40:01.422Z,13.40
2023-04-20T00:42:29.832Z,13.40
2023-04-20T00:44:58.226Z,13.40
2023-04-20T00:47:28.088Z,13.40
2023-04-20T00:49:56.496Z,13.30
2023-04-20T00:52:24.915Z,13.40
2023-04-20T00:54:53.382Z,13.30
2023-04-20T00:57:23.974Z,13.40
2023-04-20T00:59:52.611Z,13.30
2023-04-20T01:02:21.060Z,13.40
2023-04-20T01:04:51.202Z,13.30
2023-04-20T01:07:19.652Z,13.40
2023-04-20T01:09:48.078Z,13.40
2023-04-20T01:12:16.523Z,13.50
2023-04-20T01:14:44.946Z,13.40
2023-04-20T01:17:15.123Z,13.40
2023-04-20T01:19:44.957Z,13.40
2023-04-20T01:22:16.672Z,13.40
2023-04-20T01:24:45.626Z,13.30
2023-04-20T01:27:14.638Z,13.40
2023-04-20T01:29:43.430Z,13.30
2023-04-20T01:32:12.186Z,13.30
2023-04-20T01:34:40.625Z,13.30
2023-04-20T01:37:09.155Z,13.30
2023-04-20T01:39:40.238Z,13.30
2023-04-20T01:42:08.768Z,13.30
2023-04-20T01:44:37.161Z,13.30
2023-04-20T01:47:05.855Z,13.20
2023-04-20T01:49:34.372Z,13.10
2023-04-20T01:52:02.765Z,13.10
2023-04-20T01:54:31.208Z,13.00
2023-04-20T01:57:00.924Z,13.10
2023-04-20T01:59:29.470Z,13.10
2023-04-20T02:01:57.972Z,13.00
2023-04-20T02:04:26.591Z,12.90
2023-04-20T02:06:55.027Z,12.80
2023-04-20T02:09:23.468Z,12.90
2023-04-20T02:11:51.817Z,12.80
2023-04-20T02:14:22.037Z,12.80
2023-04-20T02:16:50.469Z,12.80
2023-04-20T02:19:19.120Z,12.90
2023-04-20T02:21:47.719Z,12.90
2023-04-20T02:24:16.204Z,12.90
2023-04-20T02:26:44.612Z,12.90
2023-04-20T02:29:13.003Z,12.90
2023-04-20T02:31:42.983Z,13.00
2023-04-20T02:34:11.437Z,13.00
2023-04-20T02:36:39.826Z,13.10
2023-04-20T02:39:08.343Z,13.10
2023-04-20T02:41:36.986Z,13.10
2023-04-20T02:44:05.534Z,13.00
2023-04-20T02:46:33.993Z,13.10
2023-04-20T02:49:04.029Z,13.10
2023-04-20T02:51:32.811Z,13.00
2023-04-20T02:54:01.205Z,13.00
2023-04-20T02:56:29.713Z,13.00
2023-04-20T02:58:58.130Z,13.00
2023-04-20T03:01:26.640Z,12.90
2023-04-20T03:03:55.243Z,12.90
2023-04-20T03:06:26.731Z,12.90
2023-04-20T03:08:55.293Z,12.80
2023-04-20T03:11:23.698Z,12.80
2023-04-20T03:13:52.143Z,12.80
2023-04-20T03:16:20.685Z,12.80
2023-04-20T03:18:49.066Z,12.80
2023-04-20T03:21:17.601Z,12.80
2023-04-20T03:23:47.373Z,12.80
2023-04-20T03:26:15.768Z,12.80
2023-04-20T03:28:44.196Z,12.80
2023-04-20T03:31:12.620Z,12.80
2023-04-20T03:33:41.035Z,12.80
2023-04-20T03:36:09.722Z,12.80
2023-04-20T03:38:38.201Z,12.80
2023-04-20T03:41:08.664Z,12.80
2023-04-20T03:43:37.069Z,12.70
2023-04-20T03:46:05.648Z,12.80
2023-04-20T03:48:34.158Z,12.80
2023-04-20T03:51:02.622Z,12.80
2023-04-20T03:53:31.078Z,12.80
2023-04-20T03:55:59.425Z,12.80
2023-04-20T03:58:29.257Z,12.80
2023-04-20T04:01:02.408Z,12.70
2023-04-20T04:03:31.057Z,12.70
2023-04-20T04:05:59.570Z,12.70
2023-04-20T04:08:27.949Z,12.70
2023-04-20T04:10:56.437Z,12.70
2023-04-20T04:13:24.823Z,12.70
2023-04-20T04:15:54.719Z,12.70
2023-04-20T04:18:23.255Z,12.70
2023-04-20T04:20:51.657Z,12.60
2023-04-20T04:23:20.152Z,12.60
2023-04-20T04:25:48.721Z,12.60
2023-04-20T04:28:17.282Z,12.50
2023-04-20T04:30:45.755Z,12.40
2023-04-20T04:33:19.082Z,12.40
2023-04-20T04:35:48.615Z,12.40
2023-04-20T04:38:17.209Z,12.30
2023-04-20T04:40:46.810Z,12.30
2023-04-20T04:43:15.222Z,12.30
2023-04-20T04:45:43.622Z,12.30
2023-04-20T04:48:12.562Z,12.30
2023-04-20T04:50:42.492Z,12.30
2023-04-20T04:53:10.878Z,12.30
2023-04-20T04:55:39.411Z,12.40
2023-04-20T04:58:07.872Z,12.40
2023-04-20T05:00:36.301Z,12.40
2023-04-20T05:03:04.982Z,12.50
2023-04-20T05:05:33.486Z,12.60
2023-04-20T05:08:03.397Z,12.60
2023-04-20T05:10:31.908Z,12.60
2023-04-20T05:13:00.546Z,12.60
2023-04-20T05:15:28.967Z,12.60
2023-04-20T05:17:57.568Z,12.60
2023-04-20T05:20:26.181Z,12.60
2023-04-20T05:22:54.603Z,12.70
2023-04-20T05:25:24.659Z,12.60
2023-04-20T05:27:53.043Z,12.60
2023-04-20T05:30:22.242Z,12.60
2023-04-20T05:32:52.513Z,12.60
2023-04-20T05:35:21.591Z,12.70
2023-04-20T05:37:50.216Z,12.60
2023-04-20T05:40:18.723Z,12.60
2023-04-20T05:42:48.485Z,12.60
2023-04-20T05:45:16.999Z,12.70
2023-04-20T05:47:53.263Z,12.70
2023-04-20T05:50:21.961Z,12.80
2023-04-20T05:52:50.591Z,12.80
2023-04-20T05:55:21.422Z,12.80
2023-04-20T05:57:52.438Z,12.90
2023-04-20T06:00:22.069Z,13.00
2023-04-20T06:02:52.322Z,13.00
2023-04-20T06:05:21.110Z,13.00
2023-04-20T06:07:49.531Z,13.10
2023-04-20T06:10:17.988Z,13.20
2023-04-20T06:12:46.429Z,13.30
2023-04-20T06:15:16.242Z,13.50
2023-04-20T06:17:44.666Z,13.60
2023-04-20T06:20:13.205Z,13.80
2023-04-20T06:22:43.955Z,13.80
2023-04-20T06:25:12.554Z,13.90
2023-04-20T06:27:41.022Z,14.00
2023-04-20T06:30:10.003Z,14.20
2023-04-20T06:32:40.056Z,14.20
2023-04-20T06:35:08.984Z,14.30
2023-04-20T06:37:37.595Z,14.30
2023-04-20T06:40:08.446Z,14.40
2023-04-20T06:42:37.591Z,14.40
2023-04-20T06:45:06.711Z,14.50
2023-04-20T06:47:35.205Z,14.60
2023-04-20T06:50:09.654Z,14.70
2023-04-20T06:52:39.416Z,14.70
2023-04-20T06:55:08.233Z,14.80
2023-04-20T06:57:38.623Z,14.90
2023-04-20T07:00:09.124Z,14.90
2023-04-20T07:02:44.057Z,15.00
2023-04-20T07:05:14.012Z,15.00
2023-04-20T07:07:42.598Z,15.10
2023-04-20T07:10:11.816Z,15.20
2023-04-20T07:12:42.828Z,15.20
2023-04-20T07:15:12.560Z,15.30
2023-04-20T07:17:41.077Z,15.30
2023-04-20T07:20:10.128Z,15.40
2023-04-20T07:22:40.225Z,15.50
2023-04-20T07:25:09.663Z,15.60
2023-04-20T07:27:38.710Z,15.70
2023-04-20T07:30:08.731Z,15.80
2023-04-20T07:32:37.645Z,15.90
2023-04-20T07:35:06.446Z,16.00
2023-04-20T07:37:34.962Z,16.20
2023-04-20T07:40:06.956Z,16.40
2023-04-20T07:42:37.130Z,16.50
2023-04-20T07:45:06.307Z,16.70
2023-04-20T07:47:35.187Z,16.80
2023-04-20T07:50:06.073Z,17.10
2023-04-20T07:52:34.774Z,17.50
2023-04-20T07:55:06.714Z,17.80
2023-04-20T07:57:36.154Z,18.20
2023-04-20T08:00:08.952Z,18.70
2023-04-20T08:02:37.708Z,18.80
2023-04-20T08:05:10.551Z,19.10
2023-04-20T08:07:39.561Z,19.40
2023-04-20T08:10:10.621Z,20.00
2023-04-20T08:12:42.381Z,20.10
2023-04-20T08:15:11.573Z,20.20
2023-04-20T08:17:40.494Z,20.40
2023-04-20T08:20:13.247Z,20.60
2023-04-20T08:22:41.964Z,20.50
2023-04-20T08:25:13.104Z,20.50
2023-04-20T08:27:41.500Z,20.80
2023-04-20T08:30:10.372Z,20.80
2023-04-20T08:32:39.180Z,20.80
2023-04-20T08:35:08.656Z,20.60
2023-04-20T08:37:38.742Z,20.50
2023-04-20T08:40:07.802Z,20.50
2023-04-20T08:42:39.081Z,20.50
2023-04-20T08:45:08.127Z,20.40
2023-04-20T08:47:37.202Z,20.00
2023-04-20T08:50:06.698Z,19.80
2023-04-20T08:52:35.917Z,19.70
2023-04-20T08:55:06.464Z,19.50
2023-04-20T08:57:35.034Z,19.40
2023-04-20T09:00:08.027Z,19.30
2023-04-20T09:02:49.533Z,18.90
2023-04-20T09:05:25.694Z,19.00
2023-04-20T09:07:59.729Z,19.00
2023-04-20T09:10:31.756Z,18.90
2023-04-20T09:13:00.452Z,18.90
2023-04-20T09:15:30.988Z,18.90
2023-04-20T09:18:16.865Z,18.90
2023-04-20T09:20:46.384Z,18.80
2023-04-20T09:23:17.964Z,18.80
2023-04-20T09:25:51.912Z,18.50
2023-04-20T09:28:23.136Z,18.50
2023-04-20T09:30:55.779Z,18.50
2023-04-20T09:33:29.433Z,18.50
2023-04-20T09:36:04.182Z,18.40
2023-04-20T09:38:32.565Z,18.20
2023-04-20T09:41:01.962Z,18.20
2023-04-20T09:43:31.397Z,18.10
2023-04-20T09:46:01.533Z,18.00
2023-04-20T09:48:32.051Z,18.20
2023-04-20T09:51:03.334Z,18.00
2023-04-20T09:53:32.126Z,18.10
2023-04-20T09:56:01.739Z,18.00
2023-04-20T09:58:33.617Z,18.10
2023-04-20T10:01:03.964Z,18.10
2023-04-20T10:03:32.551Z,18.00
2023-04-20T10:06:01.157Z,18.00
2023-04-20T10:08:29.542Z,18.10
2023-04-20T10:10:57.933Z,18.20
2023-04-20T10:13:34.095Z,18.20
2023-04-20T10:16:04.276Z,17.90
2023-04-20T10:18:32.758Z,17.80
2023-04-20T10:21:09.636Z,17.80
2023-04-20T10:23:48.080Z,17.80
2023-04-20T10:26:16.989Z,17.80
2023-04-20T10:28:45.624Z,17.90
2023-04-20T10:31:17.139Z,17.80
2023-04-20T10:33:52.362Z,17.70
2023-04-20T10:36:28.418Z,17.50
2023-04-20T10:38:57.001Z,17.40
2023-04-20T10:41:25.627Z,17.30
2023-04-20T10:43:53.990Z,17.20
2023-04-20T10:46:24.679Z,17.20
2023-04-20T10:48:56.513Z,17.10
2023-04-20T10:51:25.540Z,17.10
2023-04-20T10:54:05.051Z,17.20
2023-04-20T10:56:40.696Z,17.10
2023-04-20T10:59:09.669Z,17.10
2023-04-20T11:01:39.710Z,17.20
2023-04-20T11:04:08.217Z,17.30
2023-04-20T11:06:36.792Z,17.30
2023-04-20T11:09:05.358Z,17.30
2023-04-20T11:11:33.750Z,17.20
2023-04-20T11:14:08.888Z,17.40
2023-04-20T11:16:49.589Z,17.20
2023-04-20T11:19:26.341Z,17.00
2023-04-20T11:21:54.838Z,17.00
2023-04-20T11:24:24.029Z,16.90
2023-04-20T11:26:54.242Z,16.80
2023-04-20T11:29:30.239Z,16.90
2023-04-20T11:31:59.160Z,16.80
2023-04-20T11:34:29.140Z,16.80
2023-04-20T11:36:57.622Z,16.90
2023-04-20T11:39:26.469Z,16.90
2023-04-20T11:41:55.215Z,16.90
2023-04-20T11:44:23.970Z,16.90
2023-04-20T11:46:53.442Z,17.00
2023-04-20T11:49:22.273Z,17.00
2023-04-20T11:51:52.272Z,17.00
2023-04-20T11:54:21.865Z,17.00
2023-04-20T11:56:50.341Z,17.00
2023-04-20T11:59:20.972Z,17.00
2023-04-20T12:01:49.875Z,16.90
2023-04-20T12:04:18.562Z,17.00
2023-04-20T12:06:47.142Z,17.00
2023-04-20T12:09:17.500Z,17.10
2023-04-20T12:11:46.207Z,17.10
2023-04-20T12:14:14.675Z,17.00
2023-04-20T12:16:43.083Z,17.10
2023-04-20T12:19:11.579Z,17.10
2023-04-20T12:21:40.139Z,17.10
2023-04-20T12:24:08.994Z,17.20
2023-04-20T12:26:39.097Z,17.20
2023-04-20T12:29:08.297Z,17.10
2023-04-20T12:31:37.315Z,16.90
2023-04-20T12:34:06.646Z,16.80
2023-04-20T12:36:36.618Z,17.00
2023-04-20T12:39:05.450Z,17.10
2023-04-20T12:41:34.554Z,16.90
2023-04-20T12:44:16.096Z,16.90
2023-04-20T12:46:44.744Z,16.90
2023-04-20T12:49:13.229Z,16.80
2023-04-20T12:51:41.593Z,16.60
2023-04-20T12:54:10.106Z,16.60
2023-04-20T12:56:38.592Z,16.70
2023-04-20T12:59:08.986Z,16.80
2023-04-20T13:01:37.417Z,16.90
2023-04-20T13:04:06.038Z,17.00
2023-04-20T13:06:34.677Z,16.90
2023-04-20T13:09:04.087Z,16.90
2023-04-20T13:11:32.699Z,16.80
2023-04-20T13:14:01.136Z,17.00
2023-04-20T13:16:31.042Z,17.10
2023-04-20T13:18:59.564Z,16.90
2023-04-20T13:21:28.062Z,16.80
2023-04-20T13:23:57.056Z,17.00
2023-04-20T13:26:25.494Z,17.20
2023-04-20T13:28:54.221Z,17.20
2023-04-20T13:31:22.758Z,17.20
2023-04-20T13:33:54.779Z,17.30
2023-04-20T13:36:23.533Z,17.20
2023-04-20T13:38:53.638Z,17.20
2023-04-20T13:41:22.157Z,17.30
2023-04-20T13:43:50.814Z,17.30
2023-04-20T13:46:20.200Z,17.30
2023-04-20T13:48:48.719Z,17.40
2023-04-20T13:51:18.542Z,17.40
2023-04-20T13:53:48.123Z,17.60
2023-04-20T13:56:16.647Z,17.50
2023-04-20T13:58:45.603Z,17.50
2023-04-20T14:01:14.401Z,17.40
2023-04-20T14:03:43.060Z,17.40
2023-04-20T14:06:11.624Z,17.40
2023-04-20T14:08:41.479Z,17.50
2023-04-20T14:11:09.979Z,17.70
2023-04-20T14:13:39.021Z,17.50
2023-04-20T14:16:09.373Z,17.40
2023-04-20T14:18:37.979Z,17.50
2023-04-20T14:21:06.822Z,17.70
2023-04-20T14:23:35.245Z,17.70
2023-04-20T14:26:05.122Z,17.80
2023-04-20T14:28:33.659Z,17.80
2023-04-20T14:31:02.437Z,17.80
2023-04-20T14:33:30.893Z,17.80
2023-04-20T14:35:59.303Z,17.70
2023-04-20T14:38:27.802Z,17.80
2023-04-20T14:40:56.244Z,17.90
2023-04-20T14:43:26.142Z,17.90
2023-04-20T14:45:55.391Z,17.70
2023-04-20T14:48:25.161Z,17.70
2023-04-20T14:50:54.326Z,17.60
2023-04-20T14:53:22.985Z,17.60
2023-04-20T14:55:52.359Z,17.50
2023-04-20T14:58:21.092Z,17.50
2023-04-20T15:00:51.160Z,17.50
2023-04-20T15:03:19.807Z,17.50
2023-04-20T15:05:48.658Z,17.30
2023-04-20T15:08:17.235Z,17.30
2023-04-20T15:10:45.727Z,17.10
2023-04-20T15:13:14.631Z,17.10
2023-04-20T15:15:48.616Z,17.10
2023-04-20T15:18:19.796Z,17.10
2023-04-20T15:20:48.257Z,16.90
2023-04-20T15:23:16.849Z,16.80
2023-04-20T15:25:45.283Z,16.90
2023-04-20T15:28:13.737Z,16.80
2023-04-20T15:30:42.330Z,16.80
2023-04-20T15:33:11.202Z,16.70
2023-04-20T15:35:41.329Z,16.60
2023-04-20T15:38:09.955Z,16.70
2023-04-20T15:40:39.367Z,16.60
2023-04-20T15:43:07.880Z,16.60
2023-04-20T15:45:36.366Z,16.60
2023-04-20T15:48:05.013Z,16.60
2023-04-20T15:50:33.440Z,16.60
2023-04-20T15:53:03.309Z,16.50
2023-04-20T15:55:34.722Z,16.60
2023-04-20T15:58:03.174Z,16.60
2023-04-20T16:00:31.620Z,16.70
2023-04-20T16:03:01.719Z,16.60
2023-04-20T16:05:30.369Z,16.60
2023-04-20T16:07:58.748Z,16.70
2023-04-20T16:10:28.669Z,16.70
2023-04-20T16:12:57.192Z,16.80
2023-04-20T16:15:25.848Z,16.80
2023-04-20T16:17:54.793Z,16.80
2023-04-20T16:20:23.417Z,16.80
2023-04-20T16:22:51.896Z,16.70
2023-04-20T16:25:23.161Z,16.60
2023-04-20T16:27:53.197Z,16.50
2023-04-20T16:30:21.707Z,16.40
2023-04-20T16:32:50.434Z,16.40
2023-04-20T16:35:18.887Z,16.30
2023-04-20T16:37:47.800Z,16.30
2023-04-20T16:40:16.185Z,16.40
2023-04-20T16:42:44.571Z,16.40
2023-04-20T16:45:14.398Z,16.40
2023-04-20T16:47:42.892Z,16.20
2023-04-20T16:50:12.615Z,16.20
2023-04-20T16:52:41.007Z,16.00
2023-04-20T16:55:09.826Z,16.00
2023-04-20T16:57:38.238Z,15.90
2023-04-20T17:00:07.701Z,15.80
2023-04-20T17:02:37.776Z,15.80
2023-04-20T17:05:07.253Z,15.80
2023-04-20T17:07:37.130Z,15.70
2023-04-20T17:10:06.516Z,15.70
2023-04-20T17:12:34.866Z,15.70
2023-04-20T17:15:03.362Z,15.70
2023-04-20T17:17:32.989Z,15.70
2023-04-20T17:20:06.376Z,15.60
2023-04-20T17:22:35.383Z,15.60
2023-04-20T17:25:06.971Z,15.60
2023-04-20T17:27:36.144Z,15.60
2023-04-20T17:30:04.734Z,15.60
2023-04-20T17:32:33.496Z,15.60
2023-04-20T17:35:03.382Z,15.60
2023-04-20T17:37:31.860Z,15.60
2023-04-20T17:40:00.314Z,15.50
2023-04-20T17:42:28.736Z,15.50
2023-04-20T17:44:57.118Z,15.50
2023-04-20T17:47:25.573Z,15.50
2023-04-20T17:49:54.064Z,15.50
2023-04-20T17:52:25.112Z,15.50
2023-04-20T17:54:53.657Z,15.40
2023-04-20T17:57:22.209Z,15.40
2023-04-20T17:59:50.754Z,15.40
2023-04-20T18:02:19.238Z,15.30
2023-04-20T18:04:48.067Z,15.30
2023-04-20T18:07:17.871Z,15.20
2023-04-20T18:09:47.679Z,15.20
2023-04-20T18:12:16.061Z,15.20
2023-04-20T18:14:44.534Z,15.20
2023-04-20T18:17:12.961Z,15.30
2023-04-20T18:19:41.368Z,15.30
2023-04-20T18:22:10.157Z,15.20
2023-04-20T18:24:39.109Z,15.10
2023-04-20T18:27:08.996Z,15.10
2023-04-20T18:29:37.374Z,15.10
2023-04-20T18:32:05.953Z,15.00
2023-04-20T18:34:34.543Z,15.00
2023-04-20T18:37:02.884Z,15.00
2023-04-20T18:39:31.296Z,15.20
2023-04-20T18:41:59.682Z,15.20
2023-04-20T18:44:30.301Z,15.20
2023-04-20T18:47:00.029Z,15.20
2023-04-20T18:49:28.478Z,15.10
2023-04-20T18:51:56.818Z,15.20
2023-04-20T18:54:25.260Z,15.20
2023-04-20T18:56:54.787Z,15.20
2023-04-20T18:59:24.719Z,15.20
2023-04-20T19:01:54.613Z,15.10
2023-04-20T19:04:23.537Z,15.10
2023-04-20T19:06:52.155Z,15.10
2023-04-20T19:09:20.507Z,15.10
2023-04-20T19:11:48.910Z,15.10
2023-04-20T19:14:17.549Z,15.10
2023-04-20T19:16:46.241Z,15.10
2023-04-20T19:19:16.132Z,15.10
2023-04-20T19:21:44.556Z,15.10
2023-04-20T19:24:13.052Z,15.20
2023-04-20T19:26:41.680Z,15.10
2023-04-20T19:29:12.261Z,15.20
2023-04-20T19:31:42.209Z,15.20
2023-04-20T19:34:13.381Z,15.20
2023-04-20T19:36:43.331Z,15.20
2023-04-20T19:39:11.756Z,15.20
2023-04-20T19:41:40.193Z,15.10
2023-04-20T19:44:10.582Z,15.10
2023-04-20T19:46:40.683Z,15.20
2023-04-20T19:49:09.198Z,15.20
2023-04-20T19:51:37.655Z,15.20
2023-04-20T19:54:07.496Z,15.20
2023-04-20T19:56:37.114Z,15.10
2023-04-20T19:59:05.595Z,15.20
2023-04-20T20:01:34.046Z,15.20
2023-04-20T20:04:02.894Z,15.10
2023-04-20T20:06:32.209Z,15.10
2023-04-20T20:09:00.716Z,15.10
2023-04-20T20:11:30.638Z,15.00
2023-04-20T20:13:58.977Z,15.00
2023-04-20T20:16:29.311Z,14.90
2023-04-20T20:18:59.403Z,14.90
2023-04-20T20:21:27.796Z,14.90
2023-04-20T20:23:56.184Z,14.90
2023-04-20T20:26:24.612Z,14.90
2023-04-20T20:28:54.534Z,14.90
2023-04-20T20:31:23.014Z,14.90
2023-04-20T20:33:52.140Z,14.80
2023-04-20T20:36:20.563Z,14.80
2023-04-20T20:38:48.977Z,14.80
2023-04-20T20:41:18.312Z,14.80
2023-04-20T20:43:47.297Z,14.80
2023-04-20T20:46:17.437Z,14.70
2023-04-20T20:48:45.974Z,14.70
2023-04-20T20:51:16.245Z,14.70
2023-04-20T20:53:44.625Z,14.60
2023-04-20T20:56:13.038Z,14.60
2023-04-20T20:58:41.417Z,14.60
2023-04-20T21:01:09.865Z,14.50
2023-04-20T21:03:39.855Z,14.60
2023-04-20T21:06:08.504Z,14.60
2023-04-20T21:08:37.705Z,14.60
2023-04-20T21:11:06.219Z,14.60
2023-04-20T21:13:34.678Z,14.50
2023-04-20T21:16:03.250Z,14.50
2023-04-20T21:18:31.825Z,14.50
2023-04-20T21:21:01.580Z,14.50
2023-04-20T21:23:29.980Z,14.40
2023-04-20T21:25:58.377Z,14.40
2023-04-20T21:28:26.774Z,14.40
2023-04-20T21:30:55.113Z,14.40
2023-04-20T21:33:23.620Z,14.40
2023-04-20T21:35:52.294Z,14.30
2023-04-20T21:38:22.081Z,14.30
2023-04-20T21:40:50.564Z,14.40
2023-04-20T21:43:18.954Z,14.30
2023-04-20T21:45:47.350Z,14.30
2023-04-20T21:48:15.827Z,14.30
2023-04-20T21:50:44.214Z,14.30
2023-04-20T21:53:12.647Z,14.30
2023-04-20T21:55:42.397Z,14.20
2023-04-20T21:58:10.851Z,14.20
2023-04-20T22:00:39.335Z,14.30
2023-04-20T22:03:07.992Z,14.20
2023-04-20T22:05:36.496Z,14.20
2023-04-20T22:08:05.013Z,14.10
2023-04-20T22:10:33.413Z,14.10
2023-04-20T22:13:03.193Z,14.10
2023-04-20T22:15:31.567Z,14.10
2023-04-20T22:18:04.065Z,14.10
2023-04-20T22:20:32.771Z,14.00
2023-04-20T22:23:01.157Z,14.00
2023-04-20T22:25:29.497Z,14.00
2023-04-20T22:27:58.127Z,14.00
2023-04-20T22:30:28.102Z,13.90
2023-04-20T22:32:56.696Z,13.90
2023-04-20T22:35:25.149Z,14.00
2023-04-20T22:37:53.838Z,13.90
2023-04-20T22:40:22.198Z,13.90
2023-04-20T22:42:50.864Z,13.90
2023-04-20T22:45:20.045Z,13.80
2023-04-20T22:47:49.905Z,13.80
2023-04-20T22:50:18.710Z,13.80
2023-04-20T22:52:47.812Z,13.80
2023-04-20T22:55:16.191Z,13.80
2023-04-20T22:57:44.597Z,13.80
2023-04-20T23:00:14.070Z,13.80
2023-04-20T23:02:42.608Z,13.90
2023-04-20T23:05:12.608Z,13.80
2023-04-20T23:07:41.576Z,13.80
2023-04-20T23:10:10.952Z,13.80
2023-04-20T23:12:39.562Z,13.80
2023-04-20T23:15:08.437Z,13.70
2023-04-20T23:17:36.890Z,13.80
2023-04-20T23:20:07.380Z,13.70
2023-04-20T23:22:37.303Z,13.70
2023-04-20T23:25:05.895Z,13.60
2023-04-20T23:27:34.365Z,13.70
2023-04-20T23:30:02.841Z,13.70
2023-04-20T23:32:31.441Z,13.70
2023-04-20T23:34:59.931Z,13.70
2023-04-20T23:37:28.389Z,13.70
2023-04-20T23:39:58.192Z,13.70
2023-04-20T23:42:26.635Z,13.60
2023-04-20T23:44:55.006Z,13.60
2023-04-20T23:47:23.710Z,13.60
2023-04-20T23:49:52.252Z,13.60
2023-04-20T23:52:20.638Z,13.60
2023-04-20T23:54:49.017Z,13.60
2023-04-20T23:57:18.857Z,13.70
2023-04-20T23:59:47.205Z,13.60
